University of Wyoming, Wyoming
Current Conditions -  °F | °C
As of 8:39 PM on Saturday 22 Nov 2014 (Local Time) from KLAR Reporting Station
Light Snow Light Snow  
Wind Chill: -4°   Ceiling: 4600
Heat Index:   Visibility: 6mi
Dew Point: -2°   Wind: 8mph
Humidity: 88%   Direction: 260°W
Pressure: 29.64"   Gusts: NA
Location:  41.4218°N, 105.605°W
Report Text: KLAR 230339Z AUTO 26007KT 6SM -SN BR SCT023 BKN046 BKN110 00/M02 A2964 RMK AO2 SNB0258E07B32 P0000 T00001017
Loading
Personal Weather Stations






























Interactive Weather Map New forecast layout! Learn more

10-Day Weather Forecast

Advertisements
Track Severe Weather on mobile